Changping, China
Current Conditions -  °F | °C
As of 4:30 AM on Sunday 26 Oct 2014 (Local Time) from ZBAA Reporting Station
Haze Haze  
Wind Chill: 54°   Ceiling: Unl
Heat Index: 54°   Visibility: 3mi
Dew Point: 45°   Wind: 7mph
Humidity: 72%   Direction: 10°N
Pressure: 30.06"   Gusts: NA
Location:  40.22°N, 116.2°E
Report Text: ZBAA 252030Z 01003MPS 340V050 5000 BR NSC 12/07 Q1018 NOSIG
Loading
Personal Weather Stations






























Interactive Weather Map
Tropical Storm Tracking
New forecast layout! Learn more

10-Day Weather Forecast

Advertisements
Track Severe Weather on mobile